Time;durP1;ratioP1;P1;durP2;ratioP2;P2;SDS_P1;SDS_P2;PMS_P1;PMS_P2;Temp;Humidity;BMP_temperature;BMP_pressure;BME280_temperature;BME280_humidity;BME280_pressure;Samples;Min_cycle;Max_cycle;Signal;HPM_P1;HPM_P2
2024/03/31 00:00:16;;;;;;;13.02;9.70;;;;;;;6.43;100.00;100005.09;5063515;28;20103;-79
2024/03/31 00:02:41;;;;;;;14.07;11.10;;;;;;;6.43;100.00;100002.47;5057986;28;20083;-79
2024/03/31 00:05:07;;;;;;;12.43;10.43;;;;;;;6.43;100.00;100005.09;5060058;28;20029;-79
2024/03/31 00:07:33;;;;;;;14.60;11.80;;;;;;;6.40;100.00;100002.59;5059418;28;20043;-79
2024/03/31 00:09:58;;;;;;;17.98;11.77;;;;;;;6.36;100.00;99993.22;5057615;28;20404;-79
2024/03/31 00:12:24;;;;;;;13.95;11.20;;;;;;;6.33;100.00;99987.22;5061173;28;20571;-79
2024/03/31 00:14:49;;;;;;;13.20;11.48;;;;;;;6.32;100.00;99993.31;5062409;28;20339;-79
2024/03/31 00:17:15;;;;;;;14.63;12.00;;;;;;;6.33;100.00;99978.53;5057769;28;20070;-79
2024/03/31 00:19:40;;;;;;;13.98;11.85;;;;;;;6.33;100.00;99986.34;5060341;28;20400;-79
2024/03/31 00:22:06;;;;;;;14.63;11.98;;;;;;;6.32;100.00;99984.66;5061047;28;20263;-79
2024/03/31 00:24:31;;;;;;;13.50;12.07;;;;;;;6.29;100.00;99983.03;5062004;28;20285;-79
2024/03/31 00:26:56;;;;;;;16.15;12.48;;;;;;;6.26;100.00;99967.53;5064806;28;20039;-79
2024/03/31 00:29:22;;;;;;;16.30;12.30;;;;;;;6.24;100.00;99971.97;5061977;28;20028;-79
2024/03/31 00:31:47;;;;;;;17.17;12.35;;;;;;;6.24;100.00;99968.47;5063130;28;20036;-79
2024/03/31 00:34:13;;;;;;;18.20;13.02;;;;;;;6.23;100.00;99972.00;5046076;28;20046;-79
2024/03/31 00:36:39;;;;;;;17.67;13.07;;;;;;;6.21;100.00;99968.63;5057589;28;20122;-79
2024/03/31 00:39:04;;;;;;;15.10;13.00;;;;;;;6.18;100.00;99969.56;5061677;28;20070;-79
2024/03/31 00:41:30;;;;;;;14.07;12.10;;;;;;;6.13;100.00;99971.47;5071190;28;20047;-79
2024/03/31 00:43:56;;;;;;;16.50;12.90;;;;;;;6.09;100.00;99973.38;5072831;28;20319;-79
2024/03/31 00:46:21;;;;;;;17.65;13.50;;;;;;;6.05;100.00;99970.91;5059596;28;20072;-79
2024/03/31 00:48:47;;;;;;;17.08;13.05;;;;;;;6.07;100.00;99961.31;5066476;28;20359;-79
2024/03/31 00:51:12;;;;;;;17.40;12.35;;;;;;;6.03;100.00;99965.78;5058848;28;20384;-79
2024/03/31 00:53:37;;;;;;;17.02;11.68;;;;;;;6.04;100.00;99951.88;5060724;28;20264;-79
2024/03/31 00:56:03;;;;;;;16.55;11.73;;;;;;;6.07;100.00;99943.09;5074428;28;20239;-79
2024/03/31 00:58:28;;;;;;;17.45;12.52;;;;;;;6.07;100.00;99933.56;5070818;28;20244;-79
2024/03/31 01:00:54;;;;;;;13.60;11.32;;;;;;;6.06;100.00;99931.88;5067040;28;20301;-79
2024/03/31 01:03:30;;;;;;;12.93;11.23;;;;;;;6.07;100.00;99930.13;5064715;28;20112;-79
2024/03/31 01:05:59;;;;;;;15.40;11.85;;;;;;;6.04;100.00;99933.69;5053933;28;20259;-79
2024/03/31 01:08:25;;;;;;;12.98;11.23;;;;;;;6.03;100.00;99931.97;5057570;28;20021;-79
2024/03/31 01:10:52;;;;;;;16.33;12.32;;;;;;;6.02;100.00;99935.50;5073460;28;20048;-79
2024/03/31 01:13:19;;;;;;;15.18;12.13;;;;;;;6.04;100.00;99936.28;5055721;28;20401;-79
2024/03/31 01:15:44;;;;;;;15.77;12.98;;;;;;;6.05;100.00;99939.72;5068953;28;20085;-79
2024/03/31 01:18:10;;;;;;;16.15;12.70;;;;;;;6.05;100.00;99945.75;5071091;28;20332;-79
2024/03/31 01:20:36;;;;;;;16.42;13.55;;;;;;;6.10;100.00;99943.84;5072860;28;20039;-78
2024/03/31 01:23:04;;;;;;;17.35;13.73;;;;;;;6.11;100.00;99949.88;5051837;28;20037;-79
2024/03/31 01:25:33;;;;;;;15.35;12.80;;;;;;;6.10;100.00;99951.66;5066576;28;20381;-79
2024/03/31 01:27:59;;;;;;;14.63;12.70;;;;;;;6.10;100.00;99961.22;5064547;28;20046;-79
2024/03/31 01:30:24;;;;;;;14.05;12.55;;;;;;;6.08;100.00;99958.66;5062565;28;20048;-79
2024/03/31 01:32:49;;;;;;;14.10;12.57;;;;;;;6.06;100.00;99959.63;5053489;28;20059;-79
2024/03/31 01:35:15;;;;;;;14.07;12.57;;;;;;;6.04;100.00;99969.22;5073570;28;20032;-79
2024/03/31 01:37:40;;;;;;;14.70;13.15;;;;;;;6.02;100.00;99973.63;5066198;28;20090;-79
2024/03/31 01:40:06;;;;;;;13.85;12.30;;;;;;;6.02;100.00;99974.50;5072420;28;20025;-79
2024/03/31 01:42:31;;;;;;;15.20;12.77;;;;;;;6.04;100.00;99967.47;5069495;28;20452;-79
2024/03/31 01:44:56;;;;;;;15.32;12.70;;;;;;;6.04;100.00;99964.00;5072485;28;20032;-79
2024/03/31 01:47:22;;;;;;;16.45;13.70;;;;;;;6.10;100.00;99954.25;5053628;28;20048;-79
2024/03/31 01:49:47;;;;;;;16.17;13.57;;;;;;;6.13;100.00;99959.34;5072938;28;20036;-79
2024/03/31 01:52:13;;;;;;;16.35;14.00;;;;;;;6.14;100.00;99965.38;5067016;28;20041;-79
2024/03/31 01:54:38;;;;;;;17.08;13.45;;;;;;;6.14;100.00;99973.19;5068210;28;20095;-79
2024/03/31 01:57:04;;;;;;;17.58;14.23;;;;;;;6.14;100.00;99974.03;5072518;28;20036;-79
2024/03/31 01:59:30;;;;;;;17.80;14.38;;;;;;;6.16;100.00;99981.78;5056613;28;20053;-79
2024/03/31 02:01:55;;;;;;;18.05;14.77;;;;;;;6.16;100.00;99979.16;5059958;28;20054;-79
2024/03/31 02:04:20;;;;;;;19.70;15.95;;;;;;;6.29;100.00;99966.56;5063188;28;20043;-79
2024/03/31 02:06:46;;;;;;;17.10;14.80;;;;;;;6.43;100.00;99968.66;5069047;28;20064;-79
2024/03/31 02:09:11;;;;;;;19.35;15.25;;;;;;;6.44;100.00;99963.41;5066636;28;20053;-79
2024/03/31 02:11:36;;;;;;;20.35;15.55;;;;;;;6.44;100.00;99967.75;5057099;28;20043;-79
2024/03/31 02:14:02;;;;;;;21.25;15.43;;;;;;;6.53;100.00;99980.41;5061873;28;20345;-79
2024/03/31 02:16:28;;;;;;;21.90;15.70;;;;;;;6.52;100.00;99976.13;5039949;28;20057;-79
2024/03/31 02:18:54;;;;;;;18.17;15.07;;;;;;;6.49;100.00;99973.63;5060226;28;20104;-79
2024/03/31 02:21:19;;;;;;;19.80;15.90;;;;;;;6.52;100.00;99966.56;5076675;28;20064;-79
2024/03/31 02:23:44;;;;;;;23.05;16.52;;;;;;;6.60;100.00;99962.81;5079879;28;20033;-81
2024/03/31 02:26:10;;;;;;;22.30;16.80;;;;;;;6.68;100.00;99960.78;5079980;28;20381;-81
2024/03/31 02:28:36;;;;;;;22.88;16.27;;;;;;;6.72;100.00;99952.78;5079795;28;20036;-81
2024/03/31 02:31:01;;;;;;;20.23;15.63;;;;;;;6.75;100.00;99945.75;5062796;28;20040;-81
2024/03/31 02:33:27;;;;;;;21.17;15.73;;;;;;;6.69;100.00;99939.91;5062520;28;20335;-81
2024/03/31 02:35:52;;;;;;;17.73;14.35;;;;;;;6.65;100.00;99951.31;5064021;28;20273;-81
2024/03/31 02:38:17;;;;;;;17.88;14.15;;;;;;;6.62;100.00;99954.06;5058074;28;20040;-81
2024/03/31 02:40:43;;;;;;;18.67;15.00;;;;;;;6.59;100.00;99943.78;5051824;28;20104;-81
2024/03/31 02:43:08;;;;;;;17.88;14.38;;;;;;;6.58;100.00;99943.81;5061368;28;20036;-81
2024/03/31 02:45:33;;;;;;;20.92;15.13;;;;;;;6.65;100.00;99942.69;5039664;28;20033;-81
2024/03/31 02:47:59;;;;;;;20.73;16.00;;;;;;;6.69;100.00;99933.84;5070934;28;20040;-81
2024/03/31 02:50:24;;;;;;;22.25;15.70;;;;;;;6.72;100.00;99929.38;5051292;28;20033;-81
2024/03/31 02:52:50;;;;;;;21.13;15.88;;;;;;;6.77;100.00;99926.59;5077991;28;20508;-81
2024/03/31 02:55:15;;;;;;;22.15;15.85;;;;;;;6.77;100.00;99920.53;5076124;28;20086;-81
2024/03/31 02:57:40;;;;;;;18.75;15.30;;;;;;;6.78;100.00;99925.66;5076344;28;20374;-82
2024/03/31 03:00:06;;;;;;;20.00;16.05;;;;;;;6.80;100.00;99923.84;5075466;28;20374;-81
2024/03/31 03:02:31;;;;;;;18.15;15.43;;;;;;;6.84;100.00;99922.84;5057419;28;20055;-81
2024/03/31 03:04:57;;;;;;;19.52;15.18;;;;;;;6.85;100.00;99914.09;5058444;28;20092;-81
2024/03/31 03:07:22;;;;;;;16.60;14.50;;;;;;;6.89;100.00;99913.09;5055800;28;20032;-81
2024/03/31 03:09:49;;;;;;;19.23;14.82;;;;;;;6.89;100.00;99914.84;5056366;28;20071;-81
2024/03/31 03:12:15;;;;;;;18.35;14.98;;;;;;;6.88;100.00;99908.78;5059308;28;20213;-81
2024/03/31 03:14:41;;;;;;;18.08;14.88;;;;;;;6.94;100.00;99914.66;5068373;28;20095;-81
2024/03/31 03:17:07;;;;;;;17.73;13.77;;;;;;;6.89;100.00;99923.50;5072551;28;20044;-81
2024/03/31 03:19:33;;;;;;;17.90;14.95;;;;;;;6.87;100.00;99927.91;5077464;28;20272;-81
2024/03/31 03:21:58;;;;;;;17.65;14.65;;;;;;;6.92;100.00;99923.38;5065620;28;20043;-81
2024/03/31 03:24:24;;;;;;;19.30;14.52;;;;;;;7.03;100.00;99922.09;5057096;28;20335;-82
2024/03/31 03:26:49;;;;;;;16.85;13.55;;;;;;;7.07;100.00;99915.84;5063501;28;20382;-81
2024/03/31 03:29:14;;;;;;;16.17;13.85;;;;;;;7.11;100.00;99915.69;5056644;28;20040;-81
2024/03/31 03:31:40;;;;;;;19.38;15.05;;;;;;;7.14;100.00;99908.66;5058710;28;20028;-81
2024/03/31 03:34:05;;;;;;;18.08;14.85;;;;;;;7.19;100.00;99911.91;5057055;28;20082;-82
2024/03/31 03:36:30;;;;;;;20.33;14.73;;;;;;;7.20;100.00;99911.81;5055665;28;20040;-81
2024/03/31 03:38:56;;;;;;;18.55;14.82;;;;;;;7.25;100.00;99909.03;5059912;28;20036;-81
2024/03/31 03:41:21;;;;;;;20.70;14.48;;;;;;;7.25;100.00;99896.84;5071713;28;20041;-81
2024/03/31 03:43:46;;;;;;;19.48;15.00;;;;;;;7.25;100.00;99891.66;5061339;28;20036;-81
2024/03/31 03:46:12;;;;;;;15.57;13.15;;;;;;;7.30;100.00;99888.88;5076469;28;20115;-81
2024/03/31 03:48:38;;;;;;;18.75;14.32;;;;;;;7.33;100.00;99880.06;5059253;28;20044;-81
2024/03/31 03:51:03;;;;;;;17.83;13.85;;;;;;;7.34;100.00;99885.22;5057361;28;20375;-81
2024/03/31 03:53:29;;;;;;;16.63;13.85;;;;;;;7.35;100.00;99886.03;5073997;28;20059;-81
2024/03/31 03:55:55;;;;;;;16.55;13.68;;;;;;;7.38;100.00;99872.91;5070382;28;20036;-81
2024/03/31 03:58:20;;;;;;;16.60;13.05;;;;;;;7.36;100.00;99874.72;5067993;28;20086;-81
2024/03/31 04:00:46;;;;;;;16.90;13.77;;;;;;;7.38;100.00;99878.13;5074196;28;20123;-81
2024/03/31 04:03:11;;;;;;;18.00;13.88;;;;;;;7.39;100.00;99878.06;5061970;28;20040;-81
2024/03/31 04:05:36;;;;;;;17.30;13.07;;;;;;;7.38;100.00;99876.34;5076726;28;20058;-81
2024/03/31 04:08:02;;;;;;;20.55;13.50;;;;;;;7.38;100.00;99868.53;5068108;28;20275;-81
2024/03/31 04:10:28;;;;;;;16.10;13.38;;;;;;;7.37;100.00;99861.66;5063896;28;20063;-81
2024/03/31 04:12:53;;;;;;;17.10;13.40;;;;;;;7.40;100.00;99865.88;5063621;28;20024;-81
2024/03/31 04:15:19;;;;;;;17.25;12.48;;;;;;;7.42;100.00;99861.44;5057493;28;20075;-81
2024/03/31 04:17:44;;;;;;;14.07;11.77;;;;;;;7.42;100.00;99853.63;5061931;28;20025;-81
2024/03/31 04:20:10;;;;;;;16.10;11.80;;;;;;;7.40;100.00;99840.66;5058190;28;20064;-81
2024/03/31 04:22:35;;;;;;;15.00;11.50;;;;;;;7.42;100.00;99838.84;5042034;28;20035;-81
2024/03/31 04:25:00;;;;;;;12.18;10.30;;;;;;;7.41;100.00;99838.91;5056150;28;20045;-81
2024/03/31 04:27:26;;;;;;;12.43;10.45;;;;;;;7.41;100.00;99841.53;5061791;28;20063;-81
2024/03/31 04:29:52;;;;;;;11.25;9.77;;;;;;;7.41;100.00;99839.75;5072821;28;20051;-81
2024/03/31 04:32:18;;;;;;;13.90;10.10;;;;;;;7.41;100.00;99854.53;5075311;28;20028;-81
2024/03/31 04:34:43;;;;;;;13.90;10.48;;;;;;;7.39;100.00;99846.78;5071253;28;20228;-81
2024/03/31 04:37:10;;;;;;;11.80;9.45;;;;;;;7.40;100.00;99845.88;5068242;28;20224;-81
2024/03/31 04:39:35;;;;;;;13.55;9.75;;;;;;;7.40;100.00;99847.63;5067804;28;20355;-81
2024/03/31 04:42:00;;;;;;;12.13;9.75;;;;;;;7.40;100.00;99843.25;5046198;28;20060;-81
2024/03/31 04:44:26;;;;;;;11.50;9.40;;;;;;;7.39;100.00;99852.00;5055611;28;20100;-81
2024/03/31 04:46:51;;;;;;;13.02;9.77;;;;;;;7.40;100.00;99850.22;5073833;28;20077;-81
2024/03/31 04:49:17;;;;;;;12.27;9.05;;;;;;;7.42;100.00;99843.19;5069333;28;20198;-81
2024/03/31 04:51:43;;;;;;;10.73;8.50;;;;;;;7.41;100.00;99855.38;5055794;28;20263;-81
2024/03/31 04:54:08;;;;;;;8.70;7.68;;;;;;;7.39;100.00;99862.41;5059181;28;20035;-81
2024/03/31 04:56:34;;;;;;;8.82;7.82;;;;;;;7.41;100.00;99865.81;5055648;28;20037;-81
2024/03/31 04:58:59;;;;;;;12.18;8.38;;;;;;;7.40;100.00;99865.88;5056025;28;20246;-81
2024/03/31 05:01:24;;;;;;;9.48;7.97;;;;;;;7.41;100.00;99862.38;5055138;28;20374;-81
2024/03/31 05:03:50;;;;;;;8.43;7.57;;;;;;;7.42;100.00;99866.63;5056726;28;20048;-81
2024/03/31 05:06:15;;;;;;;8.00;7.20;;;;;;;7.42;100.00;99872.72;5071970;28;20129;-81
2024/03/31 05:08:40;;;;;;;6.97;6.35;;;;;;;7.42;100.00;99866.63;5073463;28;20388;-81
2024/03/31 05:11:06;;;;;;;7.28;6.13;;;;;;;7.42;100.00;99862.31;5060338;28;20037;-81
2024/03/31 05:13:32;;;;;;;6.82;6.18;;;;;;;7.43;100.00;99856.16;5070162;28;20044;-81
2024/03/31 05:16:09;;;;;;;7.22;6.28;;;;;;;7.40;100.00;99860.66;5062066;28;20086;-81
2024/03/31 05:18:34;;;;;;;5.85;5.35;;;;;;;7.43;100.00;99848.34;5055430;28;20087;-80
2024/03/31 05:21:05;;;;;;;6.25;5.65;;;;;;;7.43;100.00;99857.94;5049327;28;20032;-81
2024/03/31 05:23:30;;;;;;;5.95;5.32;;;;;;;7.43;100.00;99852.72;5074497;28;20056;-81
2024/03/31 05:25:56;;;;;;;5.78;5.28;;;;;;;7.43;100.00;99843.13;5064701;28;20028;-81
2024/03/31 05:28:22;;;;;;;6.45;5.90;;;;;;;7.47;100.00;99849.91;5052950;28;20032;-81
2024/03/31 05:30:48;;;;;;;6.20;5.60;;;;;;;7.46;100.00;99852.59;5054934;28;20094;-81
2024/03/31 05:33:14;;;;;;;8.35;5.55;;;;;;;7.47;100.00;99843.84;5068848;28;20041;-81
2024/03/31 05:35:40;;;;;;;5.95;5.40;;;;;;;7.46;100.00;99844.78;5065566;28;20107;-81
2024/03/31 05:38:08;;;;;;;6.63;6.00;;;;;;;7.47;100.00;99838.63;5075213;28;20037;-81
2024/03/31 05:40:33;;;;;;;5.38;4.97;;;;;;;7.45;100.00;99840.47;5055593;28;20040;-81
2024/03/31 05:42:59;;;;;;;5.60;5.20;;;;;;;7.46;100.00;99839.56;5069593;28;20036;-83
2024/03/31 05:45:24;;;;;;;5.10;4.57;;;;;;;7.45;100.00;99841.31;5064103;28;20055;-81
2024/03/31 05:47:49;;;;;;;5.80;5.20;;;;;;;7.48;100.00;99833.38;5066284;28;20352;-81
2024/03/31 05:50:15;;;;;;;5.65;5.15;;;;;;;7.50;100.00;99836.75;5054451;28;20355;-84
2024/03/31 05:52:40;;;;;;;5.68;5.05;;;;;;;7.51;100.00;99832.38;5060366;28;20032;-81
2024/03/31 05:55:05;;;;;;;6.07;5.57;;;;;;;7.51;100.00;99829.75;5072286;28;20035;-81
2024/03/31 05:57:31;;;;;;;5.90;5.40;;;;;;;7.49;100.00;99826.38;5062419;28;20064;-81
2024/03/31 05:59:56;;;;;;;9.80;5.43;;;;;;;7.53;100.00;99827.97;5055655;28;20362;-81
2024/03/31 06:02:21;;;;;;;6.10;5.45;;;;;;;7.53;100.00;99829.69;5061988;28;20044;-81
2024/03/31 06:04:47;;;;;;;6.30;5.32;;;;;;;7.52;100.00;99830.63;5054716;28;20033;-81
2024/03/31 06:07:13;;;;;;;6.25;5.65;;;;;;;7.54;100.00;99827.03;5036685;28;20133;-81
2024/03/31 06:09:44;;;;;;;6.00;5.50;;;;;;;7.53;100.00;99825.34;5054849;28;20193;-83
2024/03/31 06:12:09;;;;;;;8.00;5.70;;;;;;;7.52;100.00;99828.03;5063156;28;20256;-81
2024/03/31 06:14:34;;;;;;;6.28;5.72;;;;;;;7.53;100.00;99830.56;5073539;28;20055;-81
2024/03/31 06:17:00;;;;;;;6.47;5.95;;;;;;;7.50;100.00;99831.53;5061560;28;20052;-81
2024/03/31 06:19:25;;;;;;;6.30;5.75;;;;;;;7.51;100.00;99829.75;5054825;28;20036;-81
2024/03/31 06:21:50;;;;;;;7.55;6.43;;;;;;;7.52;100.00;99831.47;5057948;28;20107;-81
2024/03/31 06:24:16;;;;;;;6.45;5.90;;;;;;;7.58;100.00;99835.56;5039488;28;20091;-81
2024/03/31 06:26:41;;;;;;;7.15;5.75;;;;;;;7.59;100.00;99834.66;5063128;28;20076;-81
2024/03/31 06:29:06;;;;;;;6.65;5.97;;;;;;;7.57;100.00;99823.47;5069956;28;20032;-81
2024/03/31 06:31:32;;;;;;;9.38;6.30;;;;;;;7.58;100.00;99825.97;5068111;28;20044;-82
2024/03/31 06:33:58;;;;;;;7.55;6.57;;;;;;;7.61;100.00;99817.19;5059647;28;20044;-81
2024/03/31 06:36:23;;;;;;;6.72;6.13;;;;;;;7.62;100.00;99816.25;5054190;28;20041;-81
2024/03/31 06:38:52;;;;;;;7.07;6.38;;;;;;;7.58;100.00;99812.94;5062304;28;20082;-81
2024/03/31 06:41:18;;;;;;;6.57;5.88;;;;;;;7.54;100.00;99816.63;5074230;28;20521;-82
2024/03/31 06:43:43;;;;;;;7.03;6.32;;;;;;;7.53;100.00;99824.50;5060452;28;20028;-81
2024/03/31 06:46:09;;;;;;;7.05;6.25;;;;;;;7.54;100.00;99814.00;5053896;28;20363;-82
2024/03/31 06:48:34;;;;;;;6.93;6.32;;;;;;;7.55;100.00;99807.91;5053853;28;20367;-82
2024/03/31 06:50:59;;;;;;;6.93;6.30;;;;;;;7.55;100.00;99813.09;5054555;28;20045;-82
2024/03/31 06:53:25;;;;;;;7.60;6.47;;;;;;;7.58;100.00;99815.56;5064872;28;20408;-82
2024/03/31 06:55:50;;;;;;;9.48;7.10;;;;;;;7.57;100.00;99813.88;5053752;28;20029;-82
2024/03/31 06:58:15;;;;;;;8.65;6.68;;;;;;;7.60;100.00;99800.69;5065785;28;20248;-82
2024/03/31 07:00:40;;;;;;;7.82;7.07;;;;;;;7.59;100.00;99792.97;5065966;28;20036;-82
2024/03/31 07:03:06;;;;;;;7.90;7.00;;;;;;;7.63;100.00;99804.94;5075980;28;20041;-82
2024/03/31 07:05:31;;;;;;;8.57;7.32;;;;;;;7.59;100.00;99799.03;5076508;28;20056;-81
2024/03/31 07:07:57;;;;;;;9.02;7.65;;;;;;;7.62;100.00;99798.91;5077434;28;20044;-82
2024/03/31 07:10:23;;;;;;;10.85;7.40;;;;;;;7.66;100.00;99797.81;5057493;28;20053;-81
2024/03/31 07:12:49;;;;;;;8.77;7.57;;;;;;;7.69;100.00;99797.69;5057376;28;20312;-81
2024/03/31 07:15:14;;;;;;;9.25;8.05;;;;;;;7.68;100.00;99795.16;5042799;28;20075;-81
2024/03/31 07:17:42;;;;;;;10.23;8.23;;;;;;;7.67;100.00;99794.28;5045496;28;20060;-81
2024/03/31 07:20:08;;;;;;;10.20;7.85;;;;;;;7.66;100.00;99794.38;5054878;28;20035;-81
2024/03/31 07:22:34;;;;;;;9.70;8.15;;;;;;;7.67;100.00;99781.25;5052334;28;20075;-81
2024/03/31 07:24:59;;;;;;;10.05;8.13;;;;;;;7.69;100.00;99776.84;5052384;28;20025;-81
2024/03/31 07:27:24;;;;;;;10.95;8.82;;;;;;;7.71;100.00;99768.94;5056608;28;20047;-81
2024/03/31 07:29:50;;;;;;;11.48;8.90;;;;;;;7.74;100.00;99771.41;5054707;28;20124;-82
2024/03/31 07:32:15;;;;;;;10.63;8.15;;;;;;;7.75;100.00;99762.69;5033976;28;20056;-81
2024/03/31 07:34:41;;;;;;;10.27;8.25;;;;;;;7.81;100.00;99772.00;5054588;28;20213;-81
2024/03/31 07:37:06;;;;;;;11.52;8.75;;;;;;;7.84;100.00;99767.47;5049305;28;20247;-82
2024/03/31 07:39:31;;;;;;;12.60;9.23;;;;;;;7.87;100.00;99769.09;5030668;28;20283;-83
2024/03/31 07:41:57;;;;;;;11.95;8.93;;;;;;;7.91;100.00;99760.19;5040684;28;20026;-81
2024/03/31 07:44:22;;;;;;;11.48;9.10;;;;;;;7.92;100.00;99766.28;5048625;28;20228;-81
2024/03/31 07:46:48;;;;;;;12.60;8.93;;;;;;;7.95;100.00;99766.97;5044728;28;20298;-83
2024/03/31 07:49:13;;;;;;;12.93;9.65;;;;;;;7.96;100.00;99766.03;5035071;28;20108;-81
2024/03/31 07:51:38;;;;;;;15.98;10.10;;;;;;;8.01;100.00;99758.03;5035854;28;20082;-81
2024/03/31 07:54:03;;;;;;;14.10;9.95;;;;;;;8.06;100.00;99763.88;5053488;28;20082;-81
2024/03/31 07:56:29;;;;;;;14.00;9.80;;;;;;;8.11;100.00;99763.63;5053003;28;20070;-81
2024/03/31 07:58:55;;;;;;;12.93;9.95;;;;;;;8.12;100.00;99766.16;5052953;28;20039;-82
2024/03/31 08:01:21;;;;;;;15.00;10.38;;;;;;;8.17;100.00;99756.38;5051723;28;20331;-81
2024/03/31 08:03:46;;;;;;;17.25;11.05;;;;;;;8.22;100.00;99759.59;5051526;28;20029;-81
2024/03/31 08:06:11;;;;;;;15.50;10.30;;;;;;;8.27;100.00;99754.16;5051522;28;20086;-81
2024/03/31 08:08:37;;;;;;;15.45;10.13;;;;;;;8.29;100.00;99747.09;5051218;28;20108;-81
2024/03/31 08:11:02;;;;;;;17.35;11.75;;;;;;;8.34;100.00;99739.06;5048309;28;20045;-81
2024/03/31 08:13:27;;;;;;;17.95;11.75;;;;;;;8.35;100.00;99739.00;5032208;28;20098;-80
2024/03/31 08:15:53;;;;;;;19.77;12.43;;;;;;;8.41;100.00;99741.28;5033787;28;20056;-81
2024/03/31 08:18:18;;;;;;;16.98;11.93;;;;;;;8.49;100.00;99742.69;5033770;28;20037;-81
2024/03/31 08:20:43;;;;;;;18.27;12.20;;;;;;;8.56;100.00;99742.31;5034407;28;20048;-82
2024/03/31 08:23:09;;;;;;;17.73;13.27;;;;;;;8.65;100.00;99751.47;5033815;28;20268;-81
2024/03/31 08:25:37;;;;;;;21.70;13.68;;;;;;;8.70;100.00;99752.06;5034330;28;20257;-81
2024/03/31 08:28:04;;;;;;;21.88;14.35;;;;;;;8.74;100.00;99758.00;5034138;28;20033;-81
2024/03/31 08:30:29;;;;;;;17.90;13.00;;;;;;;8.72;100.00;99758.06;5032554;28;20068;-81
2024/03/31 08:32:54;;;;;;;22.55;13.85;;;;;;;8.69;100.00;99754.75;5034063;28;20253;-81
2024/03/31 08:35:20;;;;;;;18.48;13.00;;;;;;;8.63;100.00;99756.75;5032164;28;20084;-81
2024/03/31 08:37:48;;;;;;;18.70;14.13;;;;;;;8.63;100.00;99761.97;5032630;28;20059;-81
2024/03/31 08:40:14;;;;;;;21.70;14.90;;;;;;;8.65;100.00;99761.91;5032256;28;20240;-81
2024/03/31 08:42:50;;;;;;;22.17;14.35;;;;;;;8.68;100.00;99768.72;5033691;28;20040;-81
2024/03/31 08:45:20;;;;;;;20.42;15.02;;;;;;;8.70;100.00;99756.47;5015686;28;20029;-81
2024/03/31 08:47:50;;;;;;;19.80;14.43;;;;;;;8.69;100.00;99750.38;5016006;28;20332;-81
2024/03/31 08:50:16;;;;;;;20.20;15.23;;;;;;;8.70;100.00;99741.63;5032768;28;20061;-81
2024/03/31 08:52:41;;;;;;;22.05;15.40;;;;;;;8.71;100.00;99739.88;5033982;28;20041;-81
2024/03/31 08:55:07;;;;;;;20.13;15.27;;;;;;;8.73;100.00;99751.06;5033550;28;20040;-82
2024/03/31 08:57:32;;;;;;;19.48;15.38;;;;;;;8.73;100.00;99740.63;5033237;28;20364;-81
2024/03/31 08:59:58;;;;;;;24.80;15.98;;;;;;;8.76;100.00;99741.31;5033706;28;20048;-81
2024/03/31 09:02:25;;;;;;;25.33;16.60;;;;;;;8.82;100.00;99737.53;5033233;28;20048;-81
2024/03/31 09:04:51;;;;;;;22.80;16.38;;;;;;;8.87;100.00;99738.16;5015886;28;20083;-81
2024/03/31 09:07:16;;;;;;;25.10;16.48;;;;;;;8.94;100.00;99728.25;5033365;28;20044;-81
2024/03/31 09:09:42;;;;;;;22.52;16.20;;;;;;;9.00;100.00;99726.19;5045176;28;20049;-81
2024/03/31 09:12:11;;;;;;;24.88;16.70;;;;;;;9.05;100.00;99727.69;5052889;28;20382;-81
2024/03/31 09:14:38;;;;;;;19.70;16.00;;;;;;;9.11;100.00;99724.75;5053258;28;20275;-81
2024/03/31 09:17:06;;;;;;;24.38;17.70;;;;;;;9.16;100.00;99714.91;5053392;28;20040;-81
2024/03/31 09:19:31;;;;;;;25.93;18.27;;;;;;;9.23;100.00;99717.13;5052673;28;20331;-81
2024/03/31 09:21:57;;;;;;;22.33;17.95;;;;;;;9.31;100.00;99708.88;5051216;28;20305;-81
2024/03/31 09:24:22;;;;;;;24.55;18.48;;;;;;;9.40;100.00;99707.53;5052658;28;20032;-81
2024/03/31 09:26:49;;;;;;;29.92;19.27;;;;;;;9.44;100.00;99713.44;5052086;28;20028;-81
2024/03/31 09:29:14;;;;;;;24.90;18.48;;;;;;;9.48;100.00;99712.34;5052697;28;20037;-80
2024/03/31 09:31:40;;;;;;;26.60;19.70;;;;;;;9.53;100.00;99710.31;5051778;28;20033;-81
2024/03/31 09:34:06;;;;;;;27.17;19.15;;;;;;;9.57;100.00;99709.25;5053012;28;20092;-81
2024/03/31 09:36:36;;;;;;;25.65;18.88;;;;;;;9.60;100.00;99696.00;5052318;28;20331;-81
2024/03/31 09:39:03;;;;;;;27.48;20.35;;;;;;;9.65;100.00;99693.97;5053074;28;20317;-81
2024/03/31 09:41:28;;;;;;;22.90;18.08;;;;;;;9.67;100.00;99696.50;5052492;28;20224;-81
2024/03/31 09:43:54;;;;;;;25.98;19.75;;;;;;;9.70;100.00;99681.50;5053249;28;20036;-81
2024/03/31 09:46:19;;;;;;;26.10;20.65;;;;;;;9.75;100.00;99679.47;5052499;28;20036;-81
2024/03/31 09:48:50;;;;;;;27.48;20.65;;;;;;;9.79;100.00;99683.59;5053011;28;20370;-81
2024/03/31 09:51:27;;;;;;;26.73;19.77;;;;;;;9.83;100.00;99675.59;5055616;28;20510;-81
2024/03/31 09:54:14;;;;;;;27.95;19.77;;;;;;;9.89;100.00;99677.84;5058910;28;20098;-81
2024/03/31 09:56:41;;;;;;;25.90;20.33;;;;;;;9.91;100.00;99684.66;5056424;28;20041;-81
2024/03/31 09:59:10;;;;;;;26.05;20.50;;;;;;;9.99;100.00;99687.72;5053958;28;20074;-81
2024/03/31 10:01:39;;;;;;;28.33;20.67;;;;;;;10.04;100.00;99690.09;5037059;28;20028;-81
2024/03/31 10:04:15;;;;;;;32.00;19.65;;;;;;;10.12;100.00;99687.84;5053186;28;20036;-81
2024/03/31 10:06:41;;;;;;;27.67;20.65;;;;;;;10.22;100.00;99679.47;5052718;28;20092;-81
2024/03/31 10:09:08;;;;;;;27.67;19.85;;;;;;;10.32;100.00;99684.13;5054356;28;20279;-81
2024/03/31 10:11:34;;;;;;;27.05;20.45;;;;;;;10.41;100.00;99679.31;5064120;28;20091;-81
2024/03/31 10:14:00;;;;;;;28.15;20.70;;;;;;;10.46;100.00;99677.22;5053036;28;20029;-81
2024/03/31 10:16:26;;;;;;;29.45;20.02;;;;;;;10.54;100.00;99677.63;5052223;28;20041;-81
2024/03/31 10:18:52;;;;;;;32.28;21.38;;;;;;;10.62;100.00;99679.78;5068458;28;20086;-81
2024/03/31 10:21:19;;;;;;;29.23;21.25;;;;;;;10.76;100.00;99674.59;5072501;28;20313;-81
2024/03/31 10:23:49;;;;;;;26.58;21.80;;;;;;;10.88;100.00;99673.84;5070756;28;20300;-81
2024/03/31 10:26:15;;;;;;;26.65;19.60;;;;;;;11.02;100.00;99672.16;5072019;28;20071;-81
2024/03/31 10:28:42;;;;;;;26.27;20.30;;;;;;;11.12;100.00;99660.19;5073054;28;20041;-81
2024/03/31 10:31:07;;;;;;;27.95;20.48;;;;;;;11.17;100.00;99666.00;5073177;28;20239;-81
2024/03/31 10:33:33;;;;;;;25.45;18.58;;;;;;;11.20;100.00;99657.91;5075672;28;20349;-81
2024/03/31 10:35:59;;;;;;;24.98;18.73;;;;;;;11.22;100.00;99663.06;5076783;28;20056;-81
2024/03/31 10:38:25;;;;;;;26.88;19.52;;;;;;;11.25;100.00;99662.91;5076078;28;20321;-81
2024/03/31 10:40:51;;;;;;;24.70;18.90;;;;;;;11.30;100.00;99661.66;5073986;28;20036;-80
2024/03/31 10:43:18;;;;;;;25.95;19.77;;;;;;;11.34;100.00;99660.53;5054610;28;20063;-81
2024/03/31 10:45:44;;;;;;;23.60;19.63;;;;;;;11.40;100.00;99667.16;5056035;28;20025;-81
2024/03/31 10:48:10;;;;;;;26.35;19.17;;;;;;;11.47;100.00;99671.09;5054350;28;20029;-81
2024/03/31 10:50:42;;;;;;;24.38;18.70;;;;;;;11.50;100.00;99664.81;5055756;28;20032;-81
2024/03/31 10:53:08;;;;;;;26.48;19.35;;;;;;;11.53;100.00;99659.38;5055882;28;20028;-81
2024/03/31 10:55:33;;;;;;;23.42;17.20;;;;;;;11.64;100.00;99653.44;5037523;28;20033;-81
2024/03/31 10:58:00;;;;;;;27.17;17.40;;;;;;;11.72;100.00;99652.00;5057939;28;20067;-81
2024/03/31 11:00:26;;;;;;;21.63;16.45;;;;;;;11.84;100.00;99653.03;5069121;28;20156;-81
2024/03/31 11:02:53;;;;;;;24.00;17.40;;;;;;;11.93;100.00;99642.88;5071326;28;20049;-81
2024/03/31 11:05:21;;;;;;;22.35;16.48;;;;;;;11.97;100.00;99645.22;5070224;28;20037;-81
2024/03/31 11:07:48;;;;;;;20.38;15.35;;;;;;;11.96;100.00;99632.19;5065808;28;20033;-81
2024/03/31 11:10:15;;;;;;;19.40;14.55;;;;;;;11.98;100.00;99636.41;5074487;28;20057;-81
2024/03/31 11:12:45;;;;;;;18.17;13.80;;;;;;;12.01;100.00;99638.00;5067442;28;20083;-81